createdAt,value
2018-08-24T00:04:14.049Z,9.15
2018-08-24T00:09:21.693Z,9.18
2018-08-24T00:14:25.118Z,10.00
2018-08-24T00:19:28.533Z,9.43
2018-08-24T00:24:31.946Z,9.15
2018-08-24T00:29:35.349Z,8.70
2018-08-24T00:34:38.810Z,9.50
2018-08-24T00:39:43.074Z,9.20
2018-08-24T00:44:46.497Z,8.48
2018-08-24T00:49:50.094Z,9.30
2018-08-24T00:54:53.516Z,8.85
2018-08-24T00:59:56.957Z,8.38
2018-08-24T01:05:00.425Z,8.40
2018-08-24T01:10:09.266Z,8.33
2018-08-24T01:15:14.993Z,9.30
2018-08-24T01:20:22.748Z,10.20
2018-08-24T01:25:26.169Z,8.48
2018-08-24T01:30:29.585Z,8.85
2018-08-24T01:35:33.006Z,8.58
2018-08-24T01:40:36.437Z,9.05
2018-08-24T01:45:39.878Z,9.93
2018-08-24T01:50:43.300Z,10.40
2018-08-24T01:55:46.808Z,9.03
2018-08-24T02:00:50.266Z,9.80
2018-08-24T02:05:58.140Z,8.50
2018-08-24T02:11:01.565Z,8.45
2018-08-24T02:16:04.981Z,7.83
2018-08-24T02:21:13.870Z,9.48
2018-08-24T02:26:17.282Z,7.87
2018-08-24T02:31:20.843Z,7.70
2018-08-24T02:36:24.189Z,7.87
2018-08-24T02:41:27.752Z,8.80
2018-08-24T02:46:31.200Z,8.80
2018-08-24T02:51:34.725Z,7.58
2018-08-24T02:56:38.182Z,7.20
2018-08-24T03:01:41.588Z,7.10
2018-08-24T03:06:45.058Z,7.30
2018-08-24T03:11:48.484Z,6.30
2018-08-24T03:16:57.194Z,5.60
2018-08-24T03:22:00.617Z,6.37
2018-08-24T03:27:04.037Z,6.12
2018-08-24T03:32:07.598Z,6.78
2018-08-24T03:37:11.090Z,5.70
2018-08-24T03:42:14.510Z,6.40
2018-08-24T03:47:17.955Z,6.47
2018-08-24T03:52:21.431Z,5.30
2018-08-24T03:57:24.868Z,5.67
2018-08-24T04:02:28.330Z,5.70
2018-08-24T04:07:31.782Z,5.87
2018-08-24T04:12:35.248Z,5.55
2018-08-24T04:17:40.260Z,5.62
2018-08-24T04:22:43.719Z,4.72
2018-08-24T04:27:47.132Z,5.58
2018-08-24T04:32:50.569Z,5.42
2018-08-24T04:37:53.986Z,5.55
2018-08-24T04:42:57.456Z,5.47
2018-08-24T04:48:00.875Z,6.40
2018-08-24T04:53:04.343Z,5.40
2018-08-24T04:58:07.802Z,5.90
2018-08-24T05:03:11.194Z,6.37
2018-08-24T05:08:14.611Z,5.35
2018-08-24T05:13:18.109Z,6.10
2018-08-24T05:18:21.530Z,6.42
2018-08-24T05:23:25.325Z,6.47
2018-08-24T05:28:28.747Z,6.37
2018-08-24T05:33:32.165Z,5.50
2018-08-24T05:38:35.607Z,7.22
2018-08-24T05:43:39.043Z,7.95
2018-08-24T05:48:42.519Z,8.45
2018-08-24T05:53:45.979Z,6.78
2018-08-24T05:58:49.441Z,7.12
2018-08-24T06:03:52.925Z,6.58
2018-08-24T06:09:01.827Z,6.95
2018-08-24T06:14:05.254Z,5.72
2018-08-24T06:19:09.610Z,5.70
2018-08-24T06:24:13.030Z,6.58
2018-08-24T06:29:16.526Z,5.35
2018-08-24T06:34:19.974Z,5.87
2018-08-24T06:39:23.413Z,7.50
2018-08-24T06:44:26.929Z,5.90
2018-08-24T06:49:30.393Z,5.78
2018-08-24T06:54:33.813Z,5.62
2018-08-24T06:59:37.277Z,5.60
2018-08-24T07:04:40.737Z,5.50
2018-08-24T07:09:44.183Z,5.90
2018-08-24T07:14:47.625Z,4.80
2018-08-24T07:19:51.101Z,4.42
2018-08-24T07:24:54.520Z,4.83
2018-08-24T07:29:57.972Z,4.90
2018-08-24T07:35:01.432Z,4.53
2018-08-24T07:40:04.900Z,5.40
2018-08-24T07:45:08.372Z,4.45
2018-08-24T07:50:11.891Z,5.08
2018-08-24T07:55:15.325Z,4.85
2018-08-24T08:00:18.770Z,4.78
2018-08-24T08:05:22.260Z,5.42
2018-08-24T08:10:29.932Z,5.65
2018-08-24T08:15:33.373Z,5.17
2018-08-24T08:20:36.862Z,4.83
2018-08-24T08:25:40.268Z,4.22
2018-08-24T08:30:43.754Z,6.17
2018-08-24T08:35:47.214Z,4.95
2018-08-24T08:40:50.633Z,4.75
2018-08-24T08:45:54.101Z,5.10
2018-08-24T08:50:57.529Z,5.37
2018-08-24T08:56:00.964Z,4.75
2018-08-24T09:01:04.585Z,4.83
2018-08-24T09:06:08.105Z,5.72
2018-08-24T09:11:11.536Z,5.22
2018-08-24T09:16:14.985Z,5.20
2018-08-24T09:21:23.606Z,4.90
2018-08-24T09:26:32.269Z,6.17
2018-08-24T09:31:37.785Z,5.40
2018-08-24T09:36:42.188Z,4.05
2018-08-24T09:41:45.637Z,3.45
2018-08-24T09:46:54.497Z,3.85
2018-08-24T09:51:57.944Z,3.35
2018-08-24T09:57:01.485Z,4.42
2018-08-24T10:02:10.491Z,3.85
2018-08-24T10:07:19.363Z,3.75
2018-08-24T10:12:22.804Z,4.10
2018-08-24T10:17:29.397Z,4.40
2018-08-24T10:22:33.399Z,3.70
2018-08-24T10:27:36.843Z,3.42
2018-08-24T10:32:40.277Z,3.77
2018-08-24T10:37:43.742Z,4.53
2018-08-24T10:42:47.192Z,3.42
2018-08-24T10:47:50.675Z,3.62
2018-08-24T10:52:54.073Z,2.70
2018-08-24T10:57:57.679Z,3.42
2018-08-24T11:03:01.283Z,2.75
2018-08-24T11:08:04.822Z,3.10
2018-08-24T11:13:08.286Z,2.92
2018-08-24T11:18:12.084Z,3.20
2018-08-24T11:23:15.570Z,2.87
2018-08-24T11:28:19.028Z,3.08
2018-08-24T11:33:22.476Z,3.22
2018-08-24T11:38:25.913Z,4.03
2018-08-24T11:43:29.428Z,4.47
2018-08-24T11:48:32.860Z,4.35
2018-08-24T11:53:36.344Z,3.65
2018-08-24T11:58:39.810Z,5.00
2018-08-24T12:03:43.272Z,4.45
2018-08-24T12:08:46.753Z,5.92
2018-08-24T12:13:50.271Z,4.78
2018-08-24T12:18:53.710Z,7.30
2018-08-24T12:23:57.211Z,6.35
2018-08-24T12:29:00.652Z,6.67
2018-08-24T12:34:04.190Z,7.08
2018-08-24T12:39:09.623Z,7.80
2018-08-24T12:44:13.109Z,8.48
2018-08-24T12:49:16.625Z,8.53
2018-08-24T12:54:20.897Z,9.25
2018-08-24T12:59:24.433Z,9.05
2018-08-24T13:04:27.976Z,6.90
2018-08-24T13:09:31.478Z,8.80
2018-08-24T13:14:34.953Z,8.15
2018-08-24T13:19:38.427Z,6.72
2018-08-24T13:24:41.982Z,9.95
2018-08-24T13:29:45.474Z,11.00
2018-08-24T13:34:48.989Z,10.78
2018-08-24T13:39:52.467Z,9.95
2018-08-24T13:44:56.051Z,9.33
2018-08-24T13:49:59.558Z,10.15
2018-08-24T13:55:03.071Z,10.55
2018-08-24T14:00:07.141Z,12.10
2018-08-24T14:05:10.914Z,11.90
2018-08-24T14:10:14.719Z,10.88
2018-08-24T14:15:18.213Z,12.45
2018-08-24T14:20:23.031Z,13.38
2018-08-24T14:25:26.569Z,14.30
2018-08-24T14:30:30.090Z,15.15
2018-08-24T14:35:33.622Z,12.93
2018-08-24T14:40:37.179Z,14.07
2018-08-24T14:45:40.721Z,14.15
2018-08-24T14:50:44.203Z,11.70
2018-08-24T14:55:47.719Z,13.08
2018-08-24T15:00:51.468Z,12.53
2018-08-24T15:05:55.098Z,12.13
2018-08-24T15:10:58.577Z,11.48
2018-08-24T15:16:02.166Z,10.00
2018-08-24T15:21:05.790Z,11.08
2018-08-24T15:26:09.278Z,8.90
2018-08-24T15:31:12.889Z,10.90
2018-08-24T15:36:16.469Z,8.95
2018-08-24T15:41:20.333Z,10.10
2018-08-24T15:46:23.990Z,8.85
2018-08-24T15:51:27.413Z,10.88
2018-08-24T15:56:30.876Z,9.03
2018-08-24T16:01:34.367Z,11.22
2018-08-24T16:06:37.911Z,9.58
2018-08-24T16:11:41.402Z,7.08
2018-08-24T16:16:44.923Z,8.40
2018-08-24T16:21:48.552Z,6.70
2018-08-24T16:26:52.080Z,5.70
2018-08-24T16:31:55.568Z,6.47
2018-08-24T16:36:59.217Z,7.87
2018-08-24T16:42:02.641Z,7.97
2018-08-24T16:47:06.157Z,7.78
2018-08-24T16:52:09.678Z,7.22
2018-08-24T16:57:13.155Z,7.87
2018-08-24T17:02:16.689Z,7.25
2018-08-24T17:07:20.219Z,6.72
2018-08-24T17:12:23.801Z,8.55
2018-08-24T17:17:27.213Z,8.08
2018-08-24T17:22:30.737Z,6.35
2018-08-24T17:27:34.243Z,10.55
2018-08-24T17:32:37.718Z,5.90
2018-08-24T17:37:41.223Z,9.20
2018-08-24T17:42:44.779Z,7.95
2018-08-24T17:47:48.309Z,7.50
2018-08-24T17:52:51.787Z,6.58
2018-08-24T17:57:55.226Z,7.12
2018-08-24T18:02:58.724Z,7.28
2018-08-24T18:08:02.236Z,7.40
2018-08-24T18:13:05.802Z,9.10
2018-08-24T18:18:09.305Z,7.30
2018-08-24T18:23:12.769Z,6.95
2018-08-24T18:28:16.276Z,7.00
2018-08-24T18:33:19.797Z,8.50
2018-08-24T18:38:23.288Z,6.92
2018-08-24T18:43:26.884Z,10.32
2018-08-24T18:48:30.417Z,9.63
2018-08-24T18:53:36.816Z,6.78
2018-08-24T18:58:40.265Z,7.78
2018-08-24T19:03:43.758Z,7.12
2018-08-24T19:08:47.197Z,8.50
2018-08-24T19:13:50.713Z,8.48
2018-08-24T19:18:59.497Z,7.40
2018-08-24T19:24:03.059Z,7.97
2018-08-24T19:29:11.945Z,7.25
2018-08-24T19:34:15.489Z,6.45
2018-08-24T19:39:18.998Z,7.40
2018-08-24T19:44:23.801Z,8.08
2018-08-24T19:49:27.824Z,9.33
2018-08-24T19:54:31.325Z,7.45
2018-08-24T19:59:34.844Z,7.00
2018-08-24T20:04:38.391Z,8.13
2018-08-24T20:09:47.227Z,8.85
2018-08-24T20:14:56.141Z,9.13
2018-08-24T20:20:00.922Z,8.65
2018-08-24T20:25:04.466Z,7.80
2018-08-24T20:30:08.006Z,8.50
2018-08-24T20:35:11.498Z,7.75
2018-08-24T20:40:15.275Z,7.92
2018-08-24T20:45:18.753Z,7.78
2018-08-24T20:50:22.251Z,8.55
2018-08-24T20:55:25.904Z,8.05
2018-08-24T21:00:29.369Z,8.48
2018-08-24T21:05:32.957Z,8.38
2018-08-24T21:10:36.401Z,8.65
2018-08-24T21:15:39.827Z,9.00
2018-08-24T21:20:43.347Z,9.00
2018-08-24T21:25:46.885Z,7.67
2018-08-24T21:30:50.435Z,7.70
2018-08-24T21:35:53.892Z,8.37
2018-08-24T21:40:57.386Z,8.03
2018-08-24T21:46:00.940Z,8.25
2018-08-24T21:51:04.484Z,6.90
2018-08-24T21:56:08.502Z,8.53
2018-08-24T22:01:12.049Z,8.70
2018-08-24T22:06:15.572Z,7.73
2018-08-24T22:11:19.346Z,7.27
2018-08-24T22:16:22.876Z,10.57
2018-08-24T22:21:26.368Z,7.13
2018-08-24T22:26:29.945Z,7.80
2018-08-24T22:31:33.478Z,8.53
2018-08-24T22:36:37.007Z,7.43
2018-08-24T22:41:40.498Z,10.77
2018-08-24T22:46:43.974Z,9.67
2018-08-24T22:51:47.432Z,11.53
2018-08-24T22:56:50.978Z,7.50
2018-08-24T23:01:54.397Z,9.63
2018-08-24T23:06:57.872Z,9.75
2018-08-24T23:12:04.309Z,9.47
2018-08-24T23:17:07.834Z,9.80
2018-08-24T23:22:11.434Z,7.80
2018-08-24T23:27:14.893Z,10.97
2018-08-24T23:32:18.357Z,11.03
2018-08-24T23:37:21.816Z,8.50
2018-08-24T23:42:25.239Z,9.17
2018-08-24T23:47:28.672Z,11.27
2018-08-24T23:52:32.129Z,10.30
2018-08-24T23:57:35.558Z,10.73
